Terminal Aerodrome Forecast
Issued by NWS Kansas City/Pleasant Hill, MO

Home | Current Version | Previous Version | Text Only | Print | Product List | Glossary On
Versions: 1 2 3 4 5 6 7 8 9 10 11 12 13 14 15 16
000
FTUS43 KEAX 252337
TAFMCI
TAF
KMCI 252337Z 2600/2624 06008KT P6SM VCTS SCT040CB OVC200
      TEMPO 2600/2604 6SM -TSRA BR BKN035CB
     FM260600 17007KT P6SM SCT040 BKN100
     FM261500 19010KT P6SM SCT060=

USA.gov is the U.S. government's official web portal to all federal, state and local government web resources and services.